Nowshera Weather



Nowshera's Current Weather

Temprature 13o haze

haze

Rain: 0 %

Min Temprature13o
Max Temprature13o
Humidity43
Wind Speed2.1 m/h
Sun Rise07:12:45
Sun Set17:36:09
Current Time: 27-Jan-2020 18:26:33
Lat/Lon: 34.01, 72




Nowshera's Geo Location



Nowshera's Weather Forecast

Time Overall Temp Min Temp Max Temp Humidity Wind Speed Rain
27-Jan-2020 (Mon)
20:00:00 overcast clouds 11.180 11.180 13.370 30 3.42 m/h 0 %
23:00:00 overcast clouds 10.710 10.710 12.350 38 3.38 m/h 0 %
28-Jan-2020 (Tue)
02:00:00 overcast clouds 9.980 9.980 11.080 48 2.12 m/h 0 %
05:00:00 overcast clouds 9.480 9.480 10.030 49 1.38 m/h 0 %
08:00:00 overcast clouds 10.010 10.010 10.010 49 0.85 m/h 0 %
11:00:00 broken clouds 13.990 13.990 13.990 35 1.77 m/h 0 %
14:00:00 broken clouds 15.980 15.980 15.980 29 1.87 m/h 0 %
17:00:00 broken clouds 15.250 15.250 15.250 35 0.35 m/h 0 %
20:00:00 overcast clouds 13.070 13.070 13.070 48 2.32 m/h 0 %
23:00:00 overcast clouds 12.010 12.010 12.010 60 1.51 m/h 0 %
29-Jan-2020 (Wed)
02:00:00 overcast clouds 10.480 10.480 10.480 69 1.2 m/h 0 %
05:00:00 overcast clouds 10.480 10.480 10.480 67 1.34 m/h 0 %
08:00:00 light rain 10.780 10.780 10.780 69 1.3 m/h 6 %
11:00:00 overcast clouds 13.480 13.480 13.480 42 2.29 m/h 0 %
14:00:00 overcast clouds 15.100 15.100 15.100 39 2.71 m/h 0 %
17:00:00 overcast clouds 12.670 12.670 12.670 59 3.8 m/h 0 %
20:00:00 overcast clouds 10.880 10.880 10.880 66 1.29 m/h 0 %
23:00:00 broken clouds 9.890 9.890 9.890 71 1.74 m/h 0 %
30-Jan-2020 (Thu)
02:00:00 scattered clouds 8.950 8.950 8.950 74 1.22 m/h 0 %
05:00:00 few clouds 8.200 8.200 8.200 74 1.43 m/h 0 %
08:00:00 clear sky 9.050 9.050 9.050 55 2.39 m/h 0 %
11:00:00 clear sky 14.010 14.010 14.010 20 2.58 m/h 0 %
14:00:00 overcast clouds 16.630 16.630 16.630 19 2.42 m/h 0 %
17:00:00 overcast clouds 15.460 15.460 15.460 25 1.96 m/h 0 %
20:00:00 scattered clouds 11.640 11.640 11.640 29 0.78 m/h 0 %
23:00:00 broken clouds 9.860 9.860 9.860 32 0.41 m/h 0 %
31-Jan-2020 (Fri)
02:00:00 broken clouds 10.210 10.210 10.210 31 0.39 m/h 0 %
05:00:00 broken clouds 8.170 8.170 8.170 33 0.73 m/h 0 %
08:00:00 overcast clouds 9.450 9.450 9.450 36 1.27 m/h 0 %
11:00:00 overcast clouds 14.170 14.170 14.170 26 1.82 m/h 0 %
14:00:00 overcast clouds 16.430 16.430 16.430 19 2.16 m/h 0 %
17:00:00 overcast clouds 15.290 15.290 15.290 28 0.87 m/h 0 %
20:00:00 overcast clouds 11.930 11.930 11.930 30 0.38 m/h 0 %
23:00:00 scattered clouds 9.880 9.880 9.880 35 0.76 m/h 0 %
01-Feb-2020 (Sat)
02:00:00 clear sky 8.400 8.400 8.400 43 0.25 m/h 0 %
05:00:00 clear sky 7.760 7.760 7.760 43 1.31 m/h 0 %
08:00:00 clear sky 8.300 8.300 8.300 48 1.13 m/h 0 %
11:00:00 clear sky 14.250 14.250 14.250 30 2.11 m/h 0 %
14:00:00 clear sky 17.160 17.160 17.160 23 2.43 m/h 0 %
17:00:00 clear sky 16.090 16.090 16.090 30 1.16 m/h 0 %

Famous Cities (61)